Impacts METAR Board
IDs:

KCXO - Conroe/Executive Arp, TX, US

Updated at: 0900 UTC 18 Jan 2022
Potential Impact None Slight Moderate High
Time 17/21Z 17/22Z 17/23Z 18/00Z 18/01Z 18/02Z 18/03Z 18/04Z 18/05Z 18/06Z 18/07Z 18/08Z 18/09Z
Temp65 65 64 54 46 43 41 40 39 40 38 37 35
Dewpt28 26 28 35 36 35 35 34 34 35 36 35 34
Altim30.11 30.11 30.10 30.10 30.10 30.11 30.12 30.13 30.13 30.11 30.10 30.10 30.09
VIS10 10 10 10 10 10 10 10 10 10 10 10 10
CIG-- -- -- -- -- -- -- -- -- -- -- -- --
CoverCLRCLRCLRCLRCLRCLRCLRCLRCLRCLRCLRCLRCLR
FltCatVFRVFRVFRVFRVFRVFRVFRVFRVFRVFRVFRVFRVFR
WX--------------------------
WDir2002301800000000000
WSpd4 4 4 0 0 0 0 0 0 0 0 0 0
WGst-- -- -- -- -- -- -- -- -- -- -- -- --
Raw hourly METARs
KCXO 172053Z 20004KT 10SM CLR 18/M02 A3011 RMK AO2 SLP197 T01831022 56029
KCXO 172153Z 23004KT 10SM CLR 18/M03 A3011 RMK AO2 SLP195 T01831033
KCXO 172253Z 18004KT 10SM CLR 18/M02 A3010 RMK AO2 SLP192 T01781022
KCXO 172353Z 00000KT 10SM CLR 12/02 A3010 RMK AO2 SLP191 T01220017 10189 20122 56006
KCXO 180053Z 00000KT 10SM CLR 08/02 A3010 RMK AO2 SLP195 T00780022
KCXO 180153Z 00000KT 10SM CLR 06/02 A3011 RMK AO2 SLP198 T00610017
KCXO 180253Z AUTO 00000KT 10SM CLR 05/02 A3012 RMK AO2 SLP200 T00500017 51009
KCXO 180353Z AUTO 00000KT 10SM CLR 04/01 A3013 RMK AO2 SLP202 T00440011
KCXO 180453Z AUTO 00000KT 10SM CLR 04/01 A3013 RMK AO2 SLP202 T00390011
KCXO 180553Z AUTO 00000KT 10SM CLR 04/02 A3011 RMK AO2 SLP195 T00440017 10122 20033 401891022 58004
KCXO 180653Z AUTO 00000KT 10SM CLR 03/02 A3010 RMK AO2 SLP193 T00330022
KCXO 180753Z AUTO 00000KT 10SM CLR 03/02 A3010 RMK AO2 SLP191 T00280017
KCXO 180853Z AUTO 00000KT 10SM CLR 02/01 A3009 RMK AO2 SLP188 T00170011 58007



Page loaded:  09:32 UTC  |   01:32 AM Pacific  |   02:32 AM Mountain  |   03:32 AM Central  |   04:32 AM Eastern

 

ADVISORIES

FORECASTS

FORECASTS

OBSERVATIONS

USER TOOLS

ABOUT US